sensor_id;sensor_type;location;lat;lon;timestamp;P1;durP1;ratioP1;P2;durP2;ratioP2
4359;SDS011;2193;47.980;7.660;2022-12-11T00:01:29;61.30;;;29.23;;
4359;SDS011;2193;47.980;7.660;2022-12-11T00:03:54;55.90;;;27.90;;
4359;SDS011;2193;47.980;7.660;2022-12-11T00:06:20;55.13;;;28.13;;
4359;SDS011;2193;47.980;7.660;2022-12-11T00:08:46;60.55;;;28.17;;
4359;SDS011;2193;47.980;7.660;2022-12-11T00:11:12;57.17;;;28.43;;
4359;SDS011;2193;47.980;7.660;2022-12-11T00:13:38;58.42;;;29.77;;
4359;SDS011;2193;47.980;7.660;2022-12-11T00:16:03;62.47;;;29.87;;
4359;SDS011;2193;47.980;7.660;2022-12-11T00:18:28;59.37;;;27.47;;
4359;SDS011;2193;47.980;7.660;2022-12-11T00:20:54;54.10;;;27.07;;
4359;SDS011;2193;47.980;7.660;2022-12-11T00:23:19;55.67;;;27.03;;
4359;SDS011;2193;47.980;7.660;2022-12-11T00:25:45;53.83;;;25.93;;
4359;SDS011;2193;47.980;7.660;2022-12-11T00:28:14;53.37;;;26.37;;
4359;SDS011;2193;47.980;7.660;2022-12-11T00:30:39;53.00;;;26.13;;
4359;SDS011;2193;47.980;7.660;2022-12-11T00:33:05;52.53;;;26.30;;
4359;SDS011;2193;47.980;7.660;2022-12-11T00:35:30;51.60;;;25.47;;
4359;SDS011;2193;47.980;7.660;2022-12-11T00:37:55;43.10;;;25.20;;
4359;SDS011;2193;47.980;7.660;2022-12-11T00:40:20;46.17;;;24.40;;
4359;SDS011;2193;47.980;7.660;2022-12-11T00:42:45;52.87;;;26.33;;
4359;SDS011;2193;47.980;7.660;2022-12-11T00:45:11;48.50;;;24.10;;
4359;SDS011;2193;47.980;7.660;2022-12-11T00:47:36;54.00;;;25.03;;
4359;SDS011;2193;47.980;7.660;2022-12-11T00:50:01;61.00;;;28.77;;
4359;SDS011;2193;47.980;7.660;2022-12-11T00:52:26;80.43;;;30.73;;
4359;SDS011;2193;47.980;7.660;2022-12-11T00:54:51;65.53;;;28.23;;
4359;SDS011;2193;47.980;7.660;2022-12-11T00:57:16;66.00;;;29.30;;
4359;SDS011;2193;47.980;7.660;2022-12-11T00:59:42;57.07;;;26.50;;
4359;SDS011;2193;47.980;7.660;2022-12-11T01:02:07;45.97;;;22.47;;
4359;SDS011;2193;47.980;7.660;2022-12-11T01:04:33;36.77;;;18.30;;
4359;SDS011;2193;47.980;7.660;2022-12-11T01:06:59;32.25;;;16.15;;
4359;SDS011;2193;47.980;7.660;2022-12-11T01:09:24;32.00;;;16.40;;
4359;SDS011;2193;47.980;7.660;2022-12-11T01:12:08;29.20;;;15.32;;
4359;SDS011;2193;47.980;7.660;2022-12-11T01:14:33;25.27;;;15.07;;
4359;SDS011;2193;47.980;7.660;2022-12-11T01:16:58;23.40;;;13.03;;
4359;SDS011;2193;47.980;7.660;2022-12-11T01:19:23;21.97;;;12.03;;
4359;SDS011;2193;47.980;7.660;2022-12-11T01:21:49;21.67;;;12.50;;
4359;SDS011;2193;47.980;7.660;2022-12-11T01:24:14;23.90;;;12.83;;
4359;SDS011;2193;47.980;7.660;2022-12-11T01:26:39;20.87;;;11.80;;
4359;SDS011;2193;47.980;7.660;2022-12-11T01:29:04;24.03;;;13.33;;
4359;SDS011;2193;47.980;7.660;2022-12-11T01:31:29;19.10;;;11.40;;
4359;SDS011;2193;47.980;7.660;2022-12-11T01:33:55;20.50;;;12.03;;
4359;SDS011;2193;47.980;7.660;2022-12-11T01:36:21;21.50;;;12.27;;
4359;SDS011;2193;47.980;7.660;2022-12-11T01:38:46;22.17;;;12.88;;
4359;SDS011;2193;47.980;7.660;2022-12-11T01:41:12;24.67;;;12.53;;
4359;SDS011;2193;47.980;7.660;2022-12-11T01:46:22;21.92;;;11.45;;
4359;SDS011;2193;47.980;7.660;2022-12-11T01:48:47;21.43;;;11.87;;
4359;SDS011;2193;47.980;7.660;2022-12-11T01:51:12;27.63;;;15.93;;
4359;SDS011;2193;47.980;7.660;2022-12-11T01:53:39;28.13;;;15.80;;
4359;SDS011;2193;47.980;7.660;2022-12-11T01:56:06;34.13;;;18.13;;
4359;SDS011;2193;47.980;7.660;2022-12-11T01:58:33;31.50;;;17.10;;
4359;SDS011;2193;47.980;7.660;2022-12-11T02:00:59;33.97;;;18.27;;
4359;SDS011;2193;47.980;7.660;2022-12-11T02:03:24;39.53;;;18.83;;
4359;SDS011;2193;47.980;7.660;2022-12-11T02:05:49;41.67;;;19.83;;
4359;SDS011;2193;47.980;7.660;2022-12-11T02:08:15;42.80;;;20.23;;
4359;SDS011;2193;47.980;7.660;2022-12-11T02:10:47;38.57;;;19.43;;
4359;SDS011;2193;47.980;7.660;2022-12-11T02:13:17;43.58;;;18.85;;
4359;SDS011;2193;47.980;7.660;2022-12-11T02:20:37;36.20;;;18.07;;
4359;SDS011;2193;47.980;7.660;2022-12-11T02:26:04;35.05;;;17.98;;
4359;SDS011;2193;47.980;7.660;2022-12-11T02:28:42;37.53;;;17.98;;
4359;SDS011;2193;47.980;7.660;2022-12-11T02:31:13;31.70;;;16.83;;
4359;SDS011;2193;47.980;7.660;2022-12-11T02:33:49;31.40;;;16.17;;
4359;SDS011;2193;47.980;7.660;2022-12-11T02:36:16;32.15;;;17.27;;
4359;SDS011;2193;47.980;7.660;2022-12-11T02:38:43;31.80;;;16.70;;
4359;SDS011;2193;47.980;7.660;2022-12-11T02:41:14;34.38;;;17.70;;
4359;SDS011;2193;47.980;7.660;2022-12-11T02:43:41;32.42;;;16.88;;
4359;SDS011;2193;47.980;7.660;2022-12-11T02:46:06;32.90;;;16.40;;
4359;SDS011;2193;47.980;7.660;2022-12-11T02:48:32;31.50;;;16.17;;
4359;SDS011;2193;47.980;7.660;2022-12-11T02:50:58;26.27;;;15.25;;
4359;SDS011;2193;47.980;7.660;2022-12-11T02:53:25;31.63;;;14.68;;
4359;SDS011;2193;47.980;7.660;2022-12-11T02:55:53;25.15;;;13.73;;
4359;SDS011;2193;47.980;7.660;2022-12-11T02:58:21;27.67;;;13.85;;
4359;SDS011;2193;47.980;7.660;2022-12-11T03:00:46;23.75;;;13.48;;
4359;SDS011;2193;47.980;7.660;2022-12-11T03:03:12;22.80;;;12.07;;
4359;SDS011;2193;47.980;7.660;2022-12-11T03:05:38;21.00;;;12.03;;
4359;SDS011;2193;47.980;7.660;2022-12-11T03:08:03;24.00;;;12.53;;
4359;SDS011;2193;47.980;7.660;2022-12-11T03:10:28;19.27;;;10.87;;
4359;SDS011;2193;47.980;7.660;2022-12-11T03:12:54;20.03;;;11.87;;
4359;SDS011;2193;47.980;7.660;2022-12-11T03:15:22;19.77;;;12.05;;
4359;SDS011;2193;47.980;7.660;2022-12-11T03:25:27;21.20;;;11.65;;
4359;SDS011;2193;47.980;7.660;2022-12-11T03:27:57;22.35;;;11.95;;
4359;SDS011;2193;47.980;7.660;2022-12-11T03:30:24;20.58;;;11.80;;
4359;SDS011;2193;47.980;7.660;2022-12-11T03:32:57;23.70;;;12.57;;
4359;SDS011;2193;47.980;7.660;2022-12-11T03:35:24;21.10;;;11.90;;
4359;SDS011;2193;47.980;7.660;2022-12-11T03:37:50;20.83;;;11.60;;
4359;SDS011;2193;47.980;7.660;2022-12-11T03:40:17;20.95;;;11.82;;
4359;SDS011;2193;47.980;7.660;2022-12-11T03:42:44;21.80;;;12.10;;
4359;SDS011;2193;47.980;7.660;2022-12-11T03:45:10;22.75;;;11.85;;
4359;SDS011;2193;47.980;7.660;2022-12-11T03:47:36;22.73;;;13.13;;
4359;SDS011;2193;47.980;7.660;2022-12-11T03:50:03;21.50;;;12.20;;
4359;SDS011;2193;47.980;7.660;2022-12-11T03:52:30;26.92;;;13.48;;
4359;SDS011;2193;47.980;7.660;2022-12-11T03:54:57;24.45;;;13.45;;
4359;SDS011;2193;47.980;7.660;2022-12-11T03:57:24;22.92;;;12.43;;
4359;SDS011;2193;47.980;7.660;2022-12-11T03:59:51;28.05;;;14.70;;
4359;SDS011;2193;47.980;7.660;2022-12-11T04:02:16;29.07;;;14.87;;
4359;SDS011;2193;47.980;7.660;2022-12-11T04:04:41;26.10;;;12.77;;
4359;SDS011;2193;47.980;7.660;2022-12-11T04:07:07;27.50;;;13.90;;
4359;SDS011;2193;47.980;7.660;2022-12-11T04:09:33;25.40;;;13.90;;
4359;SDS011;2193;47.980;7.660;2022-12-11T04:11:58;27.33;;;13.70;;
4359;SDS011;2193;47.980;7.660;2022-12-11T04:14:23;29.50;;;14.43;;
4359;SDS011;2193;47.980;7.660;2022-12-11T04:17:07;27.23;;;14.25;;
4359;SDS011;2193;47.980;7.660;2022-12-11T04:19:32;27.50;;;13.87;;
4359;SDS011;2193;47.980;7.660;2022-12-11T04:22:16;26.48;;;14.32;;
4359;SDS011;2193;47.980;7.660;2022-12-11T04:25:01;27.45;;;13.43;;
4359;SDS011;2193;47.980;7.660;2022-12-11T04:27:27;29.65;;;14.25;;
4359;SDS011;2193;47.980;7.660;2022-12-11T04:30:15;28.55;;;15.65;;
4359;SDS011;2193;47.980;7.660;2022-12-11T04:32:40;30.55;;;15.02;;
4359;SDS011;2193;47.980;7.660;2022-12-11T04:35:07;29.27;;;15.13;;
4359;SDS011;2193;47.980;7.660;2022-12-11T04:37:32;28.73;;;14.52;;
4359;SDS011;2193;47.980;7.660;2022-12-11T04:39:57;29.07;;;15.00;;
4359;SDS011;2193;47.980;7.660;2022-12-11T04:42:23;27.37;;;14.90;;
4359;SDS011;2193;47.980;7.660;2022-12-11T04:44:48;33.33;;;16.10;;
4359;SDS011;2193;47.980;7.660;2022-12-11T04:47:13;33.30;;;16.67;;
4359;SDS011;2193;47.980;7.660;2022-12-11T04:49:38;34.53;;;16.77;;
4359;SDS011;2193;47.980;7.660;2022-12-11T04:52:04;31.10;;;16.67;;
4359;SDS011;2193;47.980;7.660;2022-12-11T04:54:30;28.47;;;15.33;;
4359;SDS011;2193;47.980;7.660;2022-12-11T04:56:56;30.35;;;16.33;;
4359;SDS011;2193;47.980;7.660;2022-12-11T04:59:21;34.93;;;17.00;;
4359;SDS011;2193;47.980;7.660;2022-12-11T05:01:46;31.83;;;17.23;;
4359;SDS011;2193;47.980;7.660;2022-12-11T05:04:12;26.73;;;14.03;;
4359;SDS011;2193;47.980;7.660;2022-12-11T05:06:37;29.03;;;15.20;;
4359;SDS011;2193;47.980;7.660;2022-12-11T05:09:02;26.43;;;14.30;;
4359;SDS011;2193;47.980;7.660;2022-12-11T05:11:27;27.90;;;14.13;;
4359;SDS011;2193;47.980;7.660;2022-12-11T05:13:52;23.90;;;13.07;;
4359;SDS011;2193;47.980;7.660;2022-12-11T05:16:18;26.53;;;13.93;;
4359;SDS011;2193;47.980;7.660;2022-12-11T05:18:43;27.67;;;15.40;;
4359;SDS011;2193;47.980;7.660;2022-12-11T05:21:10;31.97;;;15.77;;
4359;SDS011;2193;47.980;7.660;2022-12-11T05:23:35;28.25;;;15.10;;
4359;SDS011;2193;47.980;7.660;2022-12-11T05:26:02;32.80;;;17.30;;
4359;SDS011;2193;47.980;7.660;2022-12-11T05:28:28;41.63;;;18.85;;
4359;SDS011;2193;47.980;7.660;2022-12-11T05:30:58;39.70;;;19.83;;
4359;SDS011;2193;47.980;7.660;2022-12-11T05:33:23;46.05;;;19.63;;
4359;SDS011;2193;47.980;7.660;2022-12-11T05:35:49;47.00;;;19.93;;
4359;SDS011;2193;47.980;7.660;2022-12-11T05:38:14;41.40;;;20.17;;
4359;SDS011;2193;47.980;7.660;2022-12-11T05:40:40;46.47;;;22.07;;
4359;SDS011;2193;47.980;7.660;2022-12-11T05:43:05;44.80;;;19.70;;
4359;SDS011;2193;47.980;7.660;2022-12-11T05:45:30;47.80;;;21.30;;
4359;SDS011;2193;47.980;7.660;2022-12-11T05:47:55;45.30;;;19.60;;
4359;SDS011;2193;47.980;7.660;2022-12-11T05:50:20;48.70;;;20.73;;
4359;SDS011;2193;47.980;7.660;2022-12-11T05:52:46;45.97;;;21.20;;
4359;SDS011;2193;47.980;7.660;2022-12-11T05:55:12;45.90;;;21.10;;
4359;SDS011;2193;47.980;7.660;2022-12-11T05:57:37;46.47;;;21.67;;
4359;SDS011;2193;47.980;7.660;2022-12-11T06:00:03;48.00;;;21.30;;
4359;SDS011;2193;47.980;7.660;2022-12-11T06:02:28;48.72;;;22.17;;
4359;SDS011;2193;47.980;7.660;2022-12-11T06:04:53;44.23;;;20.70;;
4359;SDS011;2193;47.980;7.660;2022-12-11T06:07:19;42.70;;;20.40;;
4359;SDS011;2193;47.980;7.660;2022-12-11T06:09:44;44.80;;;21.20;;
4359;SDS011;2193;47.980;7.660;2022-12-11T06:12:09;46.93;;;21.13;;
4359;SDS011;2193;47.980;7.660;2022-12-11T06:14:35;52.67;;;22.73;;
4359;SDS011;2193;47.980;7.660;2022-12-11T06:17:00;54.00;;;23.17;;
4359;SDS011;2193;47.980;7.660;2022-12-11T06:19:25;52.00;;;23.30;;
4359;SDS011;2193;47.980;7.660;2022-12-11T06:21:50;52.77;;;22.17;;
4359;SDS011;2193;47.980;7.660;2022-12-11T06:24:15;51.53;;;22.90;;
4359;SDS011;2193;47.980;7.660;2022-12-11T06:26:41;51.37;;;22.20;;
4359;SDS011;2193;47.980;7.660;2022-12-11T06:29:06;55.37;;;23.60;;
4359;SDS011;2193;47.980;7.660;2022-12-11T06:31:31;54.10;;;22.80;;
4359;SDS011;2193;47.980;7.660;2022-12-11T06:33:56;62.17;;;24.67;;
4359;SDS011;2193;47.980;7.660;2022-12-11T06:36:22;67.73;;;27.13;;
4359;SDS011;2193;47.980;7.660;2022-12-11T06:38:48;67.00;;;24.60;;
4359;SDS011;2193;47.980;7.660;2022-12-11T06:41:13;62.63;;;26.47;;
4359;SDS011;2193;47.980;7.660;2022-12-11T06:43:39;82.20;;;30.17;;
4359;SDS011;2193;47.980;7.660;2022-12-11T06:46:05;69.67;;;28.23;;
4359;SDS011;2193;47.980;7.660;2022-12-11T06:48:30;102.35;;;29.17;;
4359;SDS011;2193;47.980;7.660;2022-12-11T06:50:55;81.53;;;28.47;;
4359;SDS011;2193;47.980;7.660;2022-12-11T06:53:21;82.85;;;30.65;;
4359;SDS011;2193;47.980;7.660;2022-12-11T06:55:47;103.30;;;29.53;;
4359;SDS011;2193;47.980;7.660;2022-12-11T06:58:12;138.07;;;35.00;;
4359;SDS011;2193;47.980;7.660;2022-12-11T07:00:37;106.13;;;31.80;;
4359;SDS011;2193;47.980;7.660;2022-12-11T07:03:03;100.47;;;30.40;;
4359;SDS011;2193;47.980;7.660;2022-12-11T07:05:29;103.43;;;32.80;;
4359;SDS011;2193;47.980;7.660;2022-12-11T07:07:54;112.60;;;34.40;;
4359;SDS011;2193;47.980;7.660;2022-12-11T07:10:20;134.77;;;33.50;;
4359;SDS011;2193;47.980;7.660;2022-12-11T07:12:45;109.70;;;33.70;;
4359;SDS011;2193;47.980;7.660;2022-12-11T07:15:10;111.80;;;33.43;;
4359;SDS011;2193;47.980;7.660;2022-12-11T07:17:35;96.90;;;31.33;;
4359;SDS011;2193;47.980;7.660;2022-12-11T07:20:01;121.33;;;33.47;;
4359;SDS011;2193;47.980;7.660;2022-12-11T07:22:27;98.43;;;33.50;;
4359;SDS011;2193;47.980;7.660;2022-12-11T07:24:52;107.30;;;33.53;;
4359;SDS011;2193;47.980;7.660;2022-12-11T07:27:17;96.60;;;31.53;;
4359;SDS011;2193;47.980;7.660;2022-12-11T07:29:43;90.07;;;31.70;;
4359;SDS011;2193;47.980;7.660;2022-12-11T07:32:09;95.77;;;29.47;;
4359;SDS011;2193;47.980;7.660;2022-12-11T07:34:34;80.33;;;27.37;;
4359;SDS011;2193;47.980;7.660;2022-12-11T07:36:59;88.67;;;27.70;;
4359;SDS011;2193;47.980;7.660;2022-12-11T07:39:24;81.73;;;26.97;;
4359;SDS011;2193;47.980;7.660;2022-12-11T07:41:50;75.87;;;25.83;;
4359;SDS011;2193;47.980;7.660;2022-12-11T07:44:15;67.17;;;26.17;;
4359;SDS011;2193;47.980;7.660;2022-12-11T07:46:40;58.37;;;22.33;;
4359;SDS011;2193;47.980;7.660;2022-12-11T07:49:06;52.43;;;22.30;;
4359;SDS011;2193;47.980;7.660;2022-12-11T07:51:32;62.23;;;22.90;;
4359;SDS011;2193;47.980;7.660;2022-12-11T07:54:01;58.58;;;22.50;;
4359;SDS011;2193;47.980;7.660;2022-12-11T07:56:27;56.45;;;22.38;;
4359;SDS011;2193;47.980;7.660;2022-12-11T07:58:53;54.13;;;22.25;;
4359;SDS011;2193;47.980;7.660;2022-12-11T08:01:28;51.80;;;21.87;;
4359;SDS011;2193;47.980;7.660;2022-12-11T08:03:54;62.25;;;22.45;;
4359;SDS011;2193;47.980;7.660;2022-12-11T08:06:19;48.17;;;20.70;;
4359;SDS011;2193;47.980;7.660;2022-12-11T08:08:45;52.67;;;22.08;;
4359;SDS011;2193;47.980;7.660;2022-12-11T08:11:11;46.83;;;20.80;;
4359;SDS011;2193;47.980;7.660;2022-12-11T08:13:37;50.10;;;20.52;;
4359;SDS011;2193;47.980;7.660;2022-12-11T08:16:03;62.23;;;20.60;;
4359;SDS011;2193;47.980;7.660;2022-12-11T08:18:29;49.90;;;21.80;;
4359;SDS011;2193;47.980;7.660;2022-12-11T08:20:54;58.23;;;23.80;;
4359;SDS011;2193;47.980;7.660;2022-12-11T08:23:19;55.37;;;23.60;;
4359;SDS011;2193;47.980;7.660;2022-12-11T08:25:44;57.63;;;23.00;;
4359;SDS011;2193;47.980;7.660;2022-12-11T08:28:09;48.57;;;20.60;;
4359;SDS011;2193;47.980;7.660;2022-12-11T08:30:37;49.80;;;20.00;;
4359;SDS011;2193;47.980;7.660;2022-12-11T08:33:02;46.60;;;19.75;;
4359;SDS011;2193;47.980;7.660;2022-12-11T08:35:27;47.83;;;21.73;;
4359;SDS011;2193;47.980;7.660;2022-12-11T08:37:52;49.90;;;20.60;;
4359;SDS011;2193;47.980;7.660;2022-12-11T08:40:17;54.90;;;22.10;;
4359;SDS011;2193;47.980;7.660;2022-12-11T08:42:42;47.93;;;20.70;;
4359;SDS011;2193;47.980;7.660;2022-12-11T08:45:08;49.10;;;21.40;;
4359;SDS011;2193;47.980;7.660;2022-12-11T08:47:33;45.57;;;21.30;;
4359;SDS011;2193;47.980;7.660;2022-12-11T08:49:59;44.60;;;20.40;;
4359;SDS011;2193;47.980;7.660;2022-12-11T08:52:24;53.10;;;20.77;;
4359;SDS011;2193;47.980;7.660;2022-12-11T08:54:49;45.53;;;19.50;;
4359;SDS011;2193;47.980;7.660;2022-12-11T08:57:14;47.30;;;19.50;;
4359;SDS011;2193;47.980;7.660;2022-12-11T08:59:39;50.37;;;22.10;;
4359;SDS011;2193;47.980;7.660;2022-12-11T09:02:05;45.63;;;20.40;;
4359;SDS011;2193;47.980;7.660;2022-12-11T09:04:30;47.13;;;20.33;;
4359;SDS011;2193;47.980;7.660;2022-12-11T09:06:55;54.17;;;20.80;;
4359;SDS011;2193;47.980;7.660;2022-12-11T09:09:21;55.70;;;24.70;;
4359;SDS011;2193;47.980;7.660;2022-12-11T09:11:46;50.13;;;22.30;;
4359;SDS011;2193;47.980;7.660;2022-12-11T09:14:11;55.97;;;26.03;;
4359;SDS011;2193;47.980;7.660;2022-12-11T09:16:37;44.27;;;19.50;;
4359;SDS011;2193;47.980;7.660;2022-12-11T09:19:05;48.13;;;21.50;;
4359;SDS011;2193;47.980;7.660;2022-12-11T09:21:31;49.72;;;20.63;;
4359;SDS011;2193;47.980;7.660;2022-12-11T09:23:57;48.47;;;21.17;;
4359;SDS011;2193;47.980;7.660;2022-12-11T09:26:23;46.70;;;22.65;;
4359;SDS011;2193;47.980;7.660;2022-12-11T09:28:48;52.27;;;24.23;;
4359;SDS011;2193;47.980;7.660;2022-12-11T09:31:19;74.15;;;32.25;;
4359;SDS011;2193;47.980;7.660;2022-12-11T09:33:47;56.75;;;27.40;;
4359;SDS011;2193;47.980;7.660;2022-12-11T09:36:12;54.40;;;26.87;;
4359;SDS011;2193;47.980;7.660;2022-12-11T09:38:38;51.03;;;22.47;;
4359;SDS011;2193;47.980;7.660;2022-12-11T09:41:48;51.20;;;22.90;;
4359;SDS011;2193;47.980;7.660;2022-12-11T09:43:59;44.55;;;20.25;;
4359;SDS011;2193;47.980;7.660;2022-12-11T09:46:26;42.85;;;19.00;;
4359;SDS011;2193;47.980;7.660;2022-12-11T09:48:51;40.50;;;19.03;;
4359;SDS011;2193;47.980;7.660;2022-12-11T09:51:39;37.07;;;19.17;;
4359;SDS011;2193;47.980;7.660;2022-12-11T09:54:06;37.67;;;17.73;;
4359;SDS011;2193;47.980;7.660;2022-12-11T09:56:31;38.43;;;17.43;;
4359;SDS011;2193;47.980;7.660;2022-12-11T10:04:06;45.55;;;19.63;;
4359;SDS011;2193;47.980;7.660;2022-12-11T10:06:37;40.83;;;18.83;;
4359;SDS011;2193;47.980;7.660;2022-12-11T10:16:46;38.85;;;18.75;;
4359;SDS011;2193;47.980;7.660;2022-12-11T10:19:17;40.80;;;19.90;;
4359;SDS011;2193;47.980;7.660;2022-12-11T10:21:43;39.35;;;19.30;;
4359;SDS011;2193;47.980;7.660;2022-12-11T10:24:15;31.73;;;15.57;;
4359;SDS011;2193;47.980;7.660;2022-12-11T10:26:42;42.72;;;21.55;;
4359;SDS011;2193;47.980;7.660;2022-12-11T10:29:16;34.23;;;15.50;;
4359;SDS011;2193;47.980;7.660;2022-12-11T10:31:57;48.75;;;22.65;;
4359;SDS011;2193;47.980;7.660;2022-12-11T10:34:35;40.60;;;17.95;;
4359;SDS011;2193;47.980;7.660;2022-12-11T10:37:03;148.32;;;54.00;;
4359;SDS011;2193;47.980;7.660;2022-12-11T10:39:29;42.30;;;19.17;;
4359;SDS011;2193;47.980;7.660;2022-12-11T10:41:54;41.50;;;19.40;;
4359;SDS011;2193;47.980;7.660;2022-12-11T10:44:24;45.50;;;24.17;;
4359;SDS011;2193;47.980;7.660;2022-12-11T10:49:28;38.85;;;19.95;;
4359;SDS011;2193;47.980;7.660;2022-12-11T10:51:54;34.55;;;17.30;;
4359;SDS011;2193;47.980;7.660;2022-12-11T10:54:39;34.03;;;18.20;;
4359;SDS011;2193;47.980;7.660;2022-12-11T10:57:06;31.83;;;14.23;;
4359;SDS011;2193;47.980;7.660;2022-12-11T10:59:44;35.72;;;17.25;;
4359;SDS011;2193;47.980;7.660;2022-12-11T11:02:18;29.10;;;15.23;;
4359;SDS011;2193;47.980;7.660;2022-12-11T11:04:45;32.55;;;15.32;;
4359;SDS011;2193;47.980;7.660;2022-12-11T11:07:17;36.90;;;18.57;;
4359;SDS011;2193;47.980;7.660;2022-12-11T11:09:42;33.80;;;16.65;;
4359;SDS011;2193;47.980;7.660;2022-12-11T11:12:21;27.10;;;13.20;;
4359;SDS011;2193;47.980;7.660;2022-12-11T11:14:57;30.90;;;14.90;;
4359;SDS011;2193;47.980;7.660;2022-12-11T11:17:22;30.90;;;16.45;;
4359;SDS011;2193;47.980;7.660;2022-12-11T11:19:47;31.70;;;16.10;;
4359;SDS011;2193;47.980;7.660;2022-12-11T11:22:14;32.63;;;15.37;;
4359;SDS011;2193;47.980;7.660;2022-12-11T11:24:42;32.97;;;17.10;;
4359;SDS011;2193;47.980;7.660;2022-12-11T11:27:50;54.45;;;18.80;;
4359;SDS011;2193;47.980;7.660;2022-12-11T11:29:57;32.45;;;16.90;;
4359;SDS011;2193;47.980;7.660;2022-12-11T11:34:49;42.90;;;21.57;;
4359;SDS011;2193;47.980;7.660;2022-12-11T11:37:52;35.20;;;16.90;;
4359;SDS011;2193;47.980;7.660;2022-12-11T11:42:43;41.22;;;18.45;;
4359;SDS011;2193;47.980;7.660;2022-12-11T11:45:18;47.58;;;21.35;;
4359;SDS011;2193;47.980;7.660;2022-12-11T11:47:50;49.28;;;24.60;;
4359;SDS011;2193;47.980;7.660;2022-12-11T11:50:18;76.75;;;33.03;;
4359;SDS011;2193;47.980;7.660;2022-12-11T11:52:45;40.75;;;18.95;;
4359;SDS011;2193;47.980;7.660;2022-12-11T11:57:42;44.95;;;20.50;;
4359;SDS011;2193;47.980;7.660;2022-12-11T12:00:25;40.22;;;20.45;;
4359;SDS011;2193;47.980;7.660;2022-12-11T12:02:55;47.55;;;20.10;;
4359;SDS011;2193;47.980;7.660;2022-12-11T12:05:22;42.05;;;20.20;;
4359;SDS011;2193;47.980;7.660;2022-12-11T12:08:02;45.85;;;20.65;;
4359;SDS011;2193;47.980;7.660;2022-12-11T12:16:01;45.55;;;21.98;;
4359;SDS011;2193;47.980;7.660;2022-12-11T12:18:42;49.03;;;21.80;;
4359;SDS011;2193;47.980;7.660;2022-12-11T12:24:13;46.03;;;21.27;;
4359;SDS011;2193;47.980;7.660;2022-12-11T12:26:35;46.03;;;20.70;;
4359;SDS011;2193;47.980;7.660;2022-12-11T12:44:26;41.03;;;20.85;;
4359;SDS011;2193;47.980;7.660;2022-12-11T12:49:27;45.47;;;22.20;;
4359;SDS011;2193;47.980;7.660;2022-12-11T12:51:54;42.70;;;21.67;;
4359;SDS011;2193;47.980;7.660;2022-12-11T12:54:20;45.80;;;22.52;;
4359;SDS011;2193;47.980;7.660;2022-12-11T12:56:46;42.00;;;20.83;;
4359;SDS011;2193;47.980;7.660;2022-12-11T12:59:24;40.57;;;19.60;;
4359;SDS011;2193;47.980;7.660;2022-12-11T13:01:50;36.78;;;18.40;;
4359;SDS011;2193;47.980;7.660;2022-12-11T13:04:26;41.63;;;20.33;;
4359;SDS011;2193;47.980;7.660;2022-12-11T13:06:51;40.75;;;20.65;;
4359;SDS011;2193;47.980;7.660;2022-12-11T13:09:25;46.87;;;23.70;;
4359;SDS011;2193;47.980;7.660;2022-12-11T13:11:52;70.05;;;30.42;;
4359;SDS011;2193;47.980;7.660;2022-12-11T13:16:45;111.72;;;39.35;;
4359;SDS011;2193;47.980;7.660;2022-12-11T13:24:33;39.00;;;19.95;;
4359;SDS011;2193;47.980;7.660;2022-12-11T13:27:19;36.57;;;18.37;;
4359;SDS011;2193;47.980;7.660;2022-12-11T13:29:46;36.08;;;19.13;;
4359;SDS011;2193;47.980;7.660;2022-12-11T13:34:43;37.50;;;20.30;;
4359;SDS011;2193;47.980;7.660;2022-12-11T13:39:52;40.20;;;19.67;;
4359;SDS011;2193;47.980;7.660;2022-12-11T13:42:27;58.67;;;28.90;;
4359;SDS011;2193;47.980;7.660;2022-12-11T13:44:53;34.45;;;18.92;;
4359;SDS011;2193;47.980;7.660;2022-12-11T13:47:18;35.90;;;20.03;;
4359;SDS011;2193;47.980;7.660;2022-12-11T13:49:45;34.50;;;18.03;;
4359;SDS011;2193;47.980;7.660;2022-12-11T13:52:18;36.08;;;18.88;;
4359;SDS011;2193;47.980;7.660;2022-12-11T13:54:48;28.15;;;14.95;;
4359;SDS011;2193;47.980;7.660;2022-12-11T13:57:15;33.65;;;17.35;;
4359;SDS011;2193;47.980;7.660;2022-12-11T13:59:42;32.53;;;17.95;;
4359;SDS011;2193;47.980;7.660;2022-12-11T14:04:58;32.75;;;18.05;;
4359;SDS011;2193;47.980;7.660;2022-12-11T14:07:30;34.63;;;18.02;;
4359;SDS011;2193;47.980;7.660;2022-12-11T14:10:06;32.17;;;17.30;;
4359;SDS011;2193;47.980;7.660;2022-12-11T14:12:33;32.80;;;17.38;;
4359;SDS011;2193;47.980;7.660;2022-12-11T14:14:59;31.25;;;16.48;;
4359;SDS011;2193;47.980;7.660;2022-12-11T14:17:29;34.28;;;16.73;;
4359;SDS011;2193;47.980;7.660;2022-12-11T14:19:56;34.63;;;17.05;;
4359;SDS011;2193;47.980;7.660;2022-12-11T14:22:22;31.73;;;16.92;;
4359;SDS011;2193;47.980;7.660;2022-12-11T14:24:58;34.17;;;17.98;;
4359;SDS011;2193;47.980;7.660;2022-12-11T14:27:24;34.65;;;18.33;;
4359;SDS011;2193;47.980;7.660;2022-12-11T14:29:50;34.50;;;18.30;;
4359;SDS011;2193;47.980;7.660;2022-12-11T14:32:17;36.97;;;20.10;;
4359;SDS011;2193;47.980;7.660;2022-12-11T14:34:44;34.08;;;17.70;;
4359;SDS011;2193;47.980;7.660;2022-12-11T14:37:11;31.33;;;16.77;;
4359;SDS011;2193;47.980;7.660;2022-12-11T14:42:19;41.42;;;22.52;;
4359;SDS011;2193;47.980;7.660;2022-12-11T14:44:55;38.55;;;20.80;;
4359;SDS011;2193;47.980;7.660;2022-12-11T14:47:23;38.00;;;19.38;;
4359;SDS011;2193;47.980;7.660;2022-12-11T14:52:16;36.80;;;19.63;;
4359;SDS011;2193;47.980;7.660;2022-12-11T14:54:46;40.70;;;22.85;;
4359;SDS011;2193;47.980;7.660;2022-12-11T14:57:19;40.80;;;20.83;;
4359;SDS011;2193;47.980;7.660;2022-12-11T14:59:45;50.20;;;26.30;;
4359;SDS011;2193;47.980;7.660;2022-12-11T15:02:22;45.95;;;23.05;;
4359;SDS011;2193;47.980;7.660;2022-12-11T15:07:52;39.20;;;20.67;;
4359;SDS011;2193;47.980;7.660;2022-12-11T15:10:21;32.13;;;18.05;;
4359;SDS011;2193;47.980;7.660;2022-12-11T15:12:47;37.85;;;19.02;;
4359;SDS011;2193;47.980;7.660;2022-12-11T15:15:13;38.67;;;19.63;;
4359;SDS011;2193;47.980;7.660;2022-12-11T15:17:39;34.20;;;17.05;;
4359;SDS011;2193;47.980;7.660;2022-12-11T15:20:05;33.70;;;17.70;;
4359;SDS011;2193;47.980;7.660;2022-12-11T15:22:31;31.73;;;17.25;;
4359;SDS011;2193;47.980;7.660;2022-12-11T15:24:56;32.20;;;16.27;;
4359;SDS011;2193;47.980;7.660;2022-12-11T15:27:35;29.20;;;15.50;;
4359;SDS011;2193;47.980;7.660;2022-12-11T15:30:53;30.38;;;16.33;;
4359;SDS011;2193;47.980;7.660;2022-12-11T15:35:26;31.75;;;17.98;;
4359;SDS011;2193;47.980;7.660;2022-12-11T15:37:56;34.60;;;18.60;;
4359;SDS011;2193;47.980;7.660;2022-12-11T15:40:21;35.90;;;18.98;;
4359;SDS011;2193;47.980;7.660;2022-12-11T15:42:47;39.87;;;20.93;;
4359;SDS011;2193;47.980;7.660;2022-12-11T15:45:17;35.30;;;18.90;;
4359;SDS011;2193;47.980;7.660;2022-12-11T15:47:43;37.67;;;19.10;;
4359;SDS011;2193;47.980;7.660;2022-12-11T15:50:18;39.20;;;19.87;;
4359;SDS011;2193;47.980;7.660;2022-12-11T15:52:45;37.92;;;19.67;;
4359;SDS011;2193;47.980;7.660;2022-12-11T15:55:10;35.97;;;18.63;;
4359;SDS011;2193;47.980;7.660;2022-12-11T15:57:35;38.80;;;19.20;;
4359;SDS011;2193;47.980;7.660;2022-12-11T16:00:01;39.57;;;19.40;;
4359;SDS011;2193;47.980;7.660;2022-12-11T16:02:26;43.20;;;20.93;;
4359;SDS011;2193;47.980;7.660;2022-12-11T16:04:52;47.23;;;21.93;;
4359;SDS011;2193;47.980;7.660;2022-12-11T16:07:19;44.47;;;24.10;;
4359;SDS011;2193;47.980;7.660;2022-12-11T16:09:44;44.22;;;22.33;;
4359;SDS011;2193;47.980;7.660;2022-12-11T16:12:10;37.90;;;19.27;;
4359;SDS011;2193;47.980;7.660;2022-12-11T16:14:35;48.13;;;24.00;;
4359;SDS011;2193;47.980;7.660;2022-12-11T16:17:04;49.28;;;24.65;;
4359;SDS011;2193;47.980;7.660;2022-12-11T16:19:29;45.20;;;23.50;;
4359;SDS011;2193;47.980;7.660;2022-12-11T16:21:54;44.27;;;22.47;;
4359;SDS011;2193;47.980;7.660;2022-12-11T16:24:20;45.57;;;21.70;;